createdAt,value
2019-04-06T00:00:49.337Z,0
2019-04-06T00:01:48.830Z,0
2019-04-06T00:02:48.858Z,0
2019-04-06T00:03:49.416Z,0
2019-04-06T00:04:49.165Z,0
2019-04-06T00:05:48.920Z,0
2019-04-06T00:06:49.205Z,0
2019-04-06T00:07:48.703Z,0
2019-04-06T00:08:48.978Z,0
2019-04-06T00:09:48.995Z,0
2019-04-06T00:10:48.764Z,0
2019-04-06T00:11:49.318Z,0
2019-04-06T00:12:49.066Z,0
2019-04-06T00:13:49.458Z,0
2019-04-06T00:14:48.844Z,0
2019-04-06T00:15:48.864Z,0
2019-04-06T00:16:49.159Z,0
2019-04-06T00:17:49.442Z,0
2019-04-06T00:18:49.200Z,0
2019-04-06T00:19:49.236Z,0
2019-04-06T00:20:49.498Z,0
2019-04-06T00:21:48.997Z,0
2019-04-06T00:22:49.044Z,0
2019-04-06T00:23:49.038Z,0
2019-04-06T00:24:49.860Z,0
2019-04-06T00:25:51.668Z,0
2019-04-06T00:26:49.418Z,0
2019-04-06T00:27:49.649Z,0
2019-04-06T00:28:49.455Z,0
2019-04-06T00:29:49.435Z,0
2019-04-06T00:30:49.196Z,0
2019-04-06T00:31:49.471Z,0
2019-04-06T00:32:49.492Z,0
2019-04-06T00:33:49.465Z,0
2019-04-06T00:34:49.809Z,0
2019-04-06T00:35:49.824Z,0
2019-04-06T00:36:49.613Z,0
2019-04-06T00:37:49.863Z,0
2019-04-06T00:38:49.621Z,0
2019-04-06T00:39:49.399Z,0
2019-04-06T00:40:49.929Z,0
2019-04-06T00:41:49.451Z,0
2019-04-06T00:42:49.709Z,0
2019-04-06T00:43:49.729Z,0
2019-04-06T00:44:50.326Z,0
2019-04-06T00:45:49.775Z,0
2019-04-06T00:46:49.542Z,0
2019-04-06T00:47:49.613Z,0
2019-04-06T00:48:49.577Z,0
2019-04-06T00:49:50.120Z,0
2019-04-06T00:50:49.652Z,0
2019-04-06T00:51:49.900Z,0
2019-04-06T00:52:50.187Z,0
2019-04-06T00:53:50.219Z,0
2019-04-06T00:54:49.963Z,0
2019-04-06T00:56:00.045Z,0
2019-04-06T00:56:50.287Z,0
2019-04-06T00:57:50.550Z,0
2019-04-06T00:58:49.785Z,0
2019-04-06T00:59:50.404Z,0
2019-04-06T01:00:50.094Z,0
2019-04-06T01:01:49.849Z,0
2019-04-06T01:02:50.394Z,0
2019-04-06T01:03:50.155Z,0
2019-04-06T01:04:50.175Z,0
2019-04-06T01:05:50.210Z,0
2019-04-06T01:06:50.225Z,0
2019-04-06T01:07:50.319Z,0
2019-04-06T01:08:50.530Z,0
2019-04-06T01:09:50.829Z,0
2019-04-06T01:10:50.560Z,0
2019-04-06T01:11:50.128Z,0
2019-04-06T01:12:50.604Z,0
2019-04-06T01:13:50.103Z,0
2019-04-06T01:14:50.432Z,0
2019-04-06T01:15:50.406Z,0
2019-04-06T01:16:50.433Z,0
2019-04-06T01:17:50.744Z,0
2019-04-06T01:18:50.467Z,0
2019-04-06T01:19:50.753Z,0
2019-04-06T01:20:50.778Z,0
2019-04-06T01:21:50.532Z,0
2019-04-06T01:22:50.557Z,0
2019-04-06T01:23:50.310Z,0
2019-04-06T01:24:50.330Z,0
2019-04-06T01:25:50.352Z,0
2019-04-06T01:26:50.692Z,0
2019-04-06T01:27:50.666Z,0
2019-04-06T01:28:50.679Z,0
2019-04-06T01:29:50.720Z,0
2019-04-06T01:30:51.023Z,0
2019-04-06T01:31:50.742Z,0
2019-04-06T01:32:50.498Z,0
2019-04-06T01:33:50.520Z,0
2019-04-06T01:34:50.892Z,0
2019-04-06T01:35:51.091Z,0
2019-04-06T01:36:50.848Z,0
2019-04-06T01:37:51.133Z,0
2019-04-06T01:38:51.140Z,0
2019-04-06T01:39:50.922Z,0
2019-04-06T01:40:51.227Z,0
2019-04-06T01:41:51.232Z,0
2019-04-06T01:42:51.319Z,0
2019-04-06T01:43:51.350Z,0
2019-04-06T01:44:51.482Z,0
2019-04-06T01:45:51.291Z,0
2019-04-06T01:46:51.055Z,0
2019-04-06T01:47:51.219Z,0
2019-04-06T01:48:51.365Z,0
2019-04-06T01:49:51.374Z,0
2019-04-06T01:50:51.136Z,0
2019-04-06T01:51:51.423Z,0
2019-04-06T01:52:50.915Z,0
2019-04-06T01:53:51.566Z,0
2019-04-06T01:54:51.434Z,0
2019-04-06T01:55:51.243Z,0
2019-04-06T01:56:51.531Z,0
2019-04-06T01:57:51.282Z,0
2019-04-06T01:58:51.565Z,0
2019-04-06T01:59:51.324Z,0
2019-04-06T02:00:51.076Z,0
2019-04-06T02:01:51.515Z,0
2019-04-06T02:02:51.659Z,0
2019-04-06T02:03:51.929Z,0
2019-04-06T02:04:51.425Z,0
2019-04-06T02:05:51.183Z,0
2019-04-06T02:06:51.463Z,0
2019-04-06T02:07:52.149Z,0
2019-04-06T02:08:51.256Z,0
2019-04-06T02:09:51.545Z,0
2019-04-06T02:10:51.575Z,0
2019-04-06T02:11:51.647Z,0
2019-04-06T02:12:51.849Z,0
2019-04-06T02:13:51.734Z,0
2019-04-06T02:14:51.699Z,0
2019-04-06T02:15:51.650Z,0
2019-04-06T02:16:51.938Z,0
2019-04-06T02:17:51.692Z,0
2019-04-06T02:18:51.863Z,0
2019-04-06T02:19:52.165Z,0
2019-04-06T02:20:52.017Z,0
2019-04-06T02:21:52.041Z,0
2019-04-06T02:22:51.592Z,0
2019-04-06T02:23:51.560Z,0
2019-04-06T02:24:51.951Z,0
2019-04-06T02:25:51.598Z,0
2019-04-06T02:26:51.881Z,0
2019-04-06T02:27:52.169Z,0
2019-04-06T02:28:51.667Z,0
2019-04-06T02:29:51.999Z,0
2019-04-06T02:30:51.780Z,0
2019-04-06T02:31:52.464Z,0
2019-04-06T02:32:52.272Z,0
2019-04-06T02:33:51.775Z,0
2019-04-06T02:34:52.746Z,0
2019-04-06T02:35:52.134Z,0
2019-04-06T02:36:52.634Z,0
2019-04-06T02:37:52.403Z,0
2019-04-06T02:38:52.214Z,0
2019-04-06T02:39:52.232Z,0
2019-04-06T02:40:52.613Z,0
2019-04-06T02:41:52.719Z,0
2019-04-06T02:42:52.890Z,0
2019-04-06T02:43:52.679Z,0
2019-04-06T02:44:52.732Z,0
2019-04-06T02:45:52.864Z,0
2019-04-06T02:46:52.584Z,0
2019-04-06T02:47:52.607Z,0
2019-04-06T02:48:52.698Z,0
2019-04-06T02:49:52.275Z,0
2019-04-06T02:50:52.745Z,0
2019-04-06T02:51:52.887Z,0
2019-04-06T02:52:52.917Z,0
2019-04-06T02:53:52.293Z,0
2019-04-06T02:54:52.462Z,0
2019-04-06T02:55:53.018Z,0
2019-04-06T02:56:54.676Z,0
2019-04-06T02:57:52.526Z,0
2019-04-06T02:58:52.607Z,0
2019-04-06T02:59:52.835Z,0
2019-04-06T03:00:52.691Z,0
2019-04-06T03:01:52.616Z,0
2019-04-06T03:02:52.865Z,0
2019-04-06T03:03:52.909Z,0
2019-04-06T03:04:52.657Z,0
2019-04-06T03:05:52.758Z,0
2019-04-06T03:06:52.701Z,0
2019-04-06T03:07:53.273Z,0
2019-04-06T03:08:53.092Z,0
2019-04-06T03:09:52.763Z,0
2019-04-06T03:10:52.544Z,0
2019-04-06T03:11:53.078Z,0
2019-04-06T03:12:53.115Z,0
2019-04-06T03:13:53.509Z,0
2019-04-06T03:14:53.149Z,0
2019-04-06T03:15:53.227Z,0
2019-04-06T03:16:52.984Z,0
2019-04-06T03:17:52.925Z,0
2019-04-06T03:18:53.387Z,0
2019-04-06T03:19:52.707Z,0
2019-04-06T03:20:53.521Z,0
2019-04-06T03:21:53.345Z,0
2019-04-06T03:22:53.358Z,0
2019-04-06T03:23:58.660Z,0
2019-04-06T03:24:53.330Z,0
2019-04-06T03:25:53.526Z,0
2019-04-06T03:27:07.986Z,0
2019-04-06T03:27:53.172Z,0
2019-04-06T03:28:53.636Z,0
2019-04-06T03:30:04.894Z,0
2019-04-06T03:30:53.678Z,0
2019-04-06T03:31:53.725Z,0
2019-04-06T03:32:53.448Z,0
2019-04-06T03:33:54.160Z,0
2019-04-06T03:34:53.676Z,0
2019-04-06T03:35:57.060Z,0
2019-04-06T03:36:53.584Z,0
2019-04-06T03:37:53.336Z,0
2019-04-06T03:38:53.669Z,0
2019-04-06T03:39:53.762Z,0
2019-04-06T03:40:53.561Z,0
2019-04-06T03:41:53.935Z,0
2019-04-06T03:42:53.956Z,0
2019-04-06T03:43:53.743Z,0
2019-04-06T03:44:54.053Z,0
2019-04-06T03:45:53.658Z,0
2019-04-06T03:46:54.046Z,0
2019-04-06T03:47:53.969Z,0
2019-04-06T03:48:53.560Z,0
2019-04-06T03:49:53.940Z,0
2019-04-06T03:50:54.188Z,0
2019-04-06T03:51:53.916Z,0
2019-04-06T03:52:53.956Z,0
2019-04-06T03:53:53.653Z,0
2019-04-06T03:54:54.205Z,0
2019-04-06T03:55:53.785Z,0
2019-04-06T03:56:54.146Z,0
2019-04-06T03:57:53.481Z,0
2019-04-06T03:58:56.921Z,0
2019-04-06T03:59:53.525Z,0
2019-04-06T04:00:54.074Z,0
2019-04-06T04:01:53.828Z,0
2019-04-06T04:02:54.494Z,0
2019-04-06T04:03:53.855Z,0
2019-04-06T04:04:54.143Z,0
2019-04-06T04:05:54.234Z,0
2019-04-06T04:06:53.935Z,0
2019-04-06T04:07:54.657Z,0
2019-04-06T04:08:54.436Z,0
2019-04-06T04:09:54.058Z,0
2019-04-06T04:10:55.154Z,0
2019-04-06T04:11:54.369Z,0
2019-04-06T04:12:54.033Z,0
2019-04-06T04:13:54.565Z,0
2019-04-06T04:14:54.163Z,0
2019-04-06T04:15:56.490Z,0
2019-04-06T04:16:54.430Z,0
2019-04-06T04:17:53.880Z,0
2019-04-06T04:18:54.303Z,0
2019-04-06T04:19:54.598Z,0
2019-04-06T04:20:54.200Z,0
2019-04-06T04:21:54.225Z,0
2019-04-06T04:22:54.247Z,0
2019-04-06T04:23:54.548Z,0
2019-04-06T04:24:54.274Z,0
2019-04-06T04:25:54.639Z,0
2019-04-06T04:26:54.326Z,0
2019-04-06T04:27:54.598Z,4
2019-04-06T04:28:54.696Z,4
2019-04-06T04:29:54.123Z,0
2019-04-06T04:30:54.941Z,4
2019-04-06T04:31:54.998Z,4
2019-04-06T04:32:54.453Z,4
2019-04-06T04:33:55.055Z,4
2019-04-06T04:34:54.763Z,4
2019-04-06T04:35:55.191Z,8
2019-04-06T04:36:54.796Z,8
2019-04-06T04:37:54.268Z,8
2019-04-06T04:38:54.292Z,12
2019-04-06T04:39:54.776Z,12
2019-04-06T04:40:54.868Z,16
2019-04-06T04:41:55.140Z,16
2019-04-06T04:42:54.916Z,20
2019-04-06T04:43:55.243Z,24
2019-04-06T04:44:54.941Z,28
2019-04-06T04:45:54.702Z,32
2019-04-06T04:46:55.271Z,32
2019-04-06T04:47:57.040Z,36
2019-04-06T04:48:55.101Z,40
2019-04-06T04:49:54.664Z,44
2019-04-06T04:50:54.849Z,48
2019-04-06T04:51:55.345Z,56
2019-04-06T04:52:55.359Z,56
2019-04-06T04:53:55.183Z,60
2019-04-06T04:54:54.875Z,60
2019-04-06T04:55:54.886Z,68
2019-04-06T04:56:55.616Z,76
2019-04-06T04:57:54.727Z,80
2019-04-06T04:58:54.696Z,88
2019-04-06T04:59:55.561Z,92
2019-04-06T05:00:55.987Z,96
2019-04-06T05:01:55.285Z,104
2019-04-06T05:02:55.107Z,104
2019-04-06T05:03:55.042Z,124
2019-04-06T05:04:55.687Z,128
2019-04-06T05:05:55.368Z,140
2019-04-06T05:06:54.883Z,152
2019-04-06T05:07:55.395Z,164
2019-04-06T05:08:55.437Z,192
2019-04-06T05:09:54.921Z,208
2019-04-06T05:10:55.509Z,216
2019-04-06T05:11:56.327Z,212
2019-04-06T05:12:54.965Z,216
2019-04-06T05:13:54.984Z,212
2019-04-06T05:14:55.737Z,228
2019-04-06T05:15:55.288Z,228
2019-04-06T05:16:55.691Z,224
2019-04-06T05:17:55.332Z,240
2019-04-06T05:18:55.879Z,248
2019-04-06T05:19:55.102Z,284
2019-04-06T05:20:55.189Z,304
2019-04-06T05:21:55.405Z,356
2019-04-06T05:22:55.720Z,364
2019-04-06T05:23:55.504Z,408
2019-04-06T05:24:55.732Z,404
2019-04-06T05:25:55.752Z,400
2019-04-06T05:26:55.248Z,372
2019-04-06T05:28:00.173Z,336
2019-04-06T05:28:55.944Z,340
2019-04-06T05:29:55.375Z,352
2019-04-06T05:30:56.055Z,368
2019-04-06T05:31:56.040Z,368
2019-04-06T05:32:56.119Z,388
2019-04-06T05:33:55.400Z,356
2019-04-06T05:34:57.981Z,352
2019-04-06T05:35:56.106Z,372
2019-04-06T05:36:56.272Z,400
2019-04-06T05:37:56.052Z,384
2019-04-06T05:38:55.484Z,380
2019-04-06T05:39:55.782Z,400
2019-04-06T05:40:56.201Z,420
2019-04-06T05:41:57.704Z,396
2019-04-06T05:42:56.090Z,448
2019-04-06T05:43:56.111Z,440
2019-04-06T05:44:55.774Z,392
2019-04-06T05:45:55.877Z,416
2019-04-06T05:46:55.902Z,432
2019-04-06T05:47:56.080Z,448
2019-04-06T05:48:55.953Z,412
2019-04-06T05:49:55.968Z,440
2019-04-06T05:50:56.168Z,480
2019-04-06T05:51:56.766Z,496
2019-04-06T05:52:56.285Z,480
2019-04-06T05:53:56.467Z,460
2019-04-06T05:54:56.332Z,480
2019-04-06T05:55:56.135Z,492
2019-04-06T05:56:56.236Z,516
2019-04-06T05:58:12.307Z,644
2019-04-06T05:58:56.181Z,624
2019-04-06T05:59:56.430Z,604
2019-04-06T06:00:56.200Z,604
2019-04-06T06:01:56.937Z,568
2019-04-06T06:02:56.401Z,568
2019-04-06T06:03:55.997Z,540
2019-04-06T06:04:56.542Z,528
2019-04-06T06:05:56.055Z,540
2019-04-06T06:06:56.571Z,568
2019-04-06T06:07:56.594Z,620
2019-04-06T06:08:56.241Z,596
2019-04-06T06:09:56.129Z,608
2019-04-06T06:10:56.372Z,648
2019-04-06T06:11:58.027Z,712
2019-04-06T06:12:56.546Z,776
2019-04-06T06:13:56.968Z,760
2019-04-06T06:14:56.464Z,796
2019-04-06T06:15:56.557Z,808
2019-04-06T06:16:57.175Z,924
2019-04-06T06:17:56.448Z,952
2019-04-06T06:18:56.756Z,936
2019-04-06T06:19:56.677Z,908
2019-04-06T06:20:56.756Z,1080
2019-04-06T06:21:56.868Z,872
2019-04-06T06:22:56.829Z,820
2019-04-06T06:23:57.009Z,816
2019-04-06T06:24:56.928Z,896
2019-04-06T06:25:56.915Z,1028
2019-04-06T06:26:57.207Z,988
2019-04-06T06:27:57.054Z,936
2019-04-06T06:28:56.759Z,952
2019-04-06T06:29:57.038Z,928
2019-04-06T06:30:56.778Z,948
2019-04-06T06:31:56.551Z,940
2019-04-06T06:32:57.283Z,864
2019-04-06T06:33:57.144Z,892
2019-04-06T06:34:57.167Z,808
2019-04-06T06:35:56.882Z,844
2019-04-06T06:36:57.181Z,1020
2019-04-06T06:37:56.867Z,1004
2019-04-06T06:38:57.000Z,920
2019-04-06T06:39:56.986Z,940
2019-04-06T06:40:56.987Z,1068
2019-04-06T06:41:57.267Z,996
2019-04-06T06:42:57.668Z,936
2019-04-06T06:43:57.308Z,944
2019-04-06T06:44:57.338Z,948
2019-04-06T06:45:57.348Z,968
2019-04-06T06:46:57.370Z,1036
2019-04-06T06:47:56.863Z,1032
2019-04-06T06:48:57.156Z,1020
2019-04-06T06:49:57.187Z,968
2019-04-06T06:50:57.840Z,1068
2019-04-06T06:51:57.380Z,1068
2019-04-06T06:52:56.972Z,1180
2019-04-06T06:53:57.682Z,1344
2019-04-06T06:54:57.470Z,1304
2019-04-06T06:56:00.068Z,1288
2019-04-06T06:56:57.728Z,1324
2019-04-06T06:57:57.325Z,1396
2019-04-06T06:58:57.072Z,1232
2019-04-06T06:59:57.620Z,1148
2019-04-06T07:00:57.642Z,1184
2019-04-06T07:01:57.410Z,1260
2019-04-06T07:02:57.565Z,1276
2019-04-06T07:03:57.725Z,1288
2019-04-06T07:04:57.456Z,1236
2019-04-06T07:05:57.799Z,1180
2019-04-06T07:06:57.359Z,1252
2019-04-06T07:07:57.525Z,1316
2019-04-06T07:08:57.552Z,1280
2019-04-06T07:10:07.154Z,1264
2019-04-06T07:10:57.850Z,1328
2019-04-06T07:11:57.606Z,1312
2019-04-06T07:12:57.366Z,1336
2019-04-06T07:13:58.073Z,1460
2019-04-06T07:14:57.827Z,1492
2019-04-06T07:15:57.945Z,1532
2019-04-06T07:16:57.970Z,1552
2019-04-06T07:17:58.440Z,1604
2019-04-06T07:18:58.435Z,1776
2019-04-06T07:19:58.314Z,1716
2019-04-06T07:20:57.823Z,1680
2019-04-06T07:21:58.162Z,1612
2019-04-06T07:22:58.083Z,1760
2019-04-06T07:23:57.580Z,1636
2019-04-06T07:24:57.857Z,1736
2019-04-06T07:26:05.754Z,1816
2019-04-06T07:26:58.171Z,1816
2019-04-06T07:27:57.922Z,1940
2019-04-06T07:28:58.003Z,1848
2019-04-06T07:29:57.739Z,1860
2019-04-06T07:30:58.086Z,1840
2019-04-06T07:31:57.741Z,2156
2019-04-06T07:33:00.264Z,2164
2019-04-06T07:33:57.776Z,2100
2019-04-06T07:34:58.279Z,2088
2019-04-06T07:35:58.167Z,2232
2019-04-06T07:36:58.699Z,2356
2019-04-06T07:37:58.123Z,2280
2019-04-06T07:38:58.097Z,2504
2019-04-06T07:39:57.916Z,2708
2019-04-06T07:40:58.219Z,2700
2019-04-06T07:41:58.606Z,2488
2019-04-06T07:42:58.393Z,2636
2019-04-06T07:43:58.523Z,2692
2019-04-06T07:44:58.519Z,2532
2019-04-06T07:45:58.570Z,2840
2019-04-06T07:46:58.345Z,2724
2019-04-06T07:47:58.589Z,2840
2019-04-06T07:49:07.704Z,3032
2019-04-06T07:49:58.637Z,2928
2019-04-06T07:50:58.289Z,2932
2019-04-06T07:51:58.404Z,2628
2019-04-06T07:52:58.874Z,2932
2019-04-06T07:53:58.847Z,2844
2019-04-06T07:54:58.466Z,3088
2019-04-06T07:55:58.559Z,2792
2019-04-06T07:56:58.771Z,3156
2019-04-06T07:57:58.601Z,2892
2019-04-06T07:58:58.822Z,3184
2019-04-06T07:59:58.834Z,3208
2019-04-06T08:00:58.593Z,3020
2019-04-06T08:01:59.106Z,3288
2019-04-06T08:02:58.908Z,3248
2019-04-06T08:03:58.653Z,3132
2019-04-06T08:04:58.990Z,3256
2019-04-06T08:05:58.933Z,3080
2019-04-06T08:06:59.305Z,3260
2019-04-06T08:07:58.740Z,3016
2019-04-06T08:08:58.980Z,2908
2019-04-06T08:09:58.966Z,3284
2019-04-06T08:10:59.570Z,3596
2019-04-06T08:11:58.978Z,3188
2019-04-06T08:12:58.842Z,3072
2019-04-06T08:13:58.850Z,2936
2019-04-06T08:14:59.950Z,3304
2019-04-06T08:15:59.226Z,3256
2019-04-06T08:16:59.065Z,3140
2019-04-06T08:17:58.944Z,3296
2019-04-06T08:18:59.683Z,3344
2019-04-06T08:19:59.403Z,3612
2019-04-06T08:20:59.183Z,3424
2019-04-06T08:21:59.535Z,3428
2019-04-06T08:22:59.308Z,3648
2019-04-06T08:23:59.706Z,3888
2019-04-06T08:24:59.575Z,3724
2019-04-06T08:25:59.630Z,4068
2019-04-06T08:26:59.158Z,3888
2019-04-06T08:27:59.151Z,4444
2019-04-06T08:29:08.387Z,4484
2019-04-06T08:29:59.225Z,4100
2019-04-06T08:30:59.470Z,3400
2019-04-06T08:31:59.234Z,4012
2019-04-06T08:32:59.709Z,4516
2019-04-06T08:33:59.526Z,4344
2019-04-06T08:35:00.052Z,4104
2019-04-06T08:35:59.342Z,3488
2019-04-06T08:36:59.108Z,3628
2019-04-06T08:37:59.622Z,4136
2019-04-06T08:38:59.138Z,4140
2019-04-06T08:39:59.886Z,4300
2019-04-06T08:40:59.741Z,4028
2019-04-06T08:41:59.833Z,4292
2019-04-06T08:42:59.464Z,3520
2019-04-06T08:43:59.221Z,2664
2019-04-06T08:44:59.500Z,3276
2019-04-06T08:45:59.531Z,4024
2019-04-06T08:46:59.803Z,4780
2019-04-06T08:47:59.870Z,4752
2019-04-06T08:48:59.588Z,3808
2019-04-06T08:49:59.866Z,3316
2019-04-06T08:50:59.629Z,2876
2019-04-06T08:51:59.652Z,2968
2019-04-06T08:53:00.031Z,3320
2019-04-06T08:53:59.816Z,3812
2019-04-06T08:54:59.710Z,3260
2019-04-06T08:56:00.011Z,2908
2019-04-06T08:56:59.708Z,2748
2019-04-06T08:57:59.768Z,3472
2019-04-06T08:59:10.118Z,3136
2019-04-06T08:59:59.817Z,3064
2019-04-06T09:01:00.558Z,3268
2019-04-06T09:02:00.183Z,3004
2019-04-06T09:03:00.327Z,2648
2019-04-06T09:04:00.148Z,2908
2019-04-06T09:04:59.659Z,2876
2019-04-06T09:06:00.699Z,2784
2019-04-06T09:06:59.994Z,2860
2019-04-06T09:08:00.731Z,2644
2019-04-06T09:09:00.275Z,2612
2019-04-06T09:10:00.911Z,2504
2019-04-06T09:11:00.465Z,2380
2019-04-06T09:12:00.363Z,2396
2019-04-06T09:13:00.423Z,2312
2019-04-06T09:14:00.345Z,2176
2019-04-06T09:15:00.590Z,2324
2019-04-06T09:16:00.855Z,2496
2019-04-06T09:17:00.383Z,2684
2019-04-06T09:18:00.202Z,2612
2019-04-06T09:19:00.767Z,2928
2019-04-06T09:20:00.618Z,3464
2019-04-06T09:21:00.268Z,3180
2019-04-06T09:22:00.646Z,3036
2019-04-06T09:23:00.579Z,2976
2019-04-06T09:24:03.235Z,3584
2019-04-06T09:25:00.733Z,3400
2019-04-06T09:26:00.852Z,4232
2019-04-06T09:27:00.726Z,4844
2019-04-06T09:28:00.407Z,5508
2019-04-06T09:29:02.079Z,4824
2019-04-06T09:30:00.341Z,3424
2019-04-06T09:31:01.205Z,2852
2019-04-06T09:32:01.217Z,2432
2019-04-06T09:33:00.803Z,2128
2019-04-06T09:34:00.541Z,1820
2019-04-06T09:35:01.386Z,1724
2019-04-06T09:36:02.414Z,1688
2019-04-06T09:37:00.859Z,1908
2019-04-06T09:38:00.994Z,2236
2019-04-06T09:39:01.177Z,2644
2019-04-06T09:40:00.424Z,3256
2019-04-06T09:41:00.973Z,3484
2019-04-06T09:42:00.710Z,4464
2019-04-06T09:43:00.490Z,5200
2019-04-06T09:44:00.754Z,5484
2019-04-06T09:45:00.770Z,5304
2019-04-06T09:46:00.798Z,4736
2019-04-06T09:47:01.079Z,4152
2019-04-06T09:48:01.153Z,3244
2019-04-06T09:49:00.856Z,2780
2019-04-06T09:50:01.172Z,2480
2019-04-06T09:51:00.671Z,2516
2019-04-06T09:52:01.414Z,3304
2019-04-06T09:53:01.710Z,3796
2019-04-06T09:54:12.432Z,4316
2019-04-06T09:55:01.246Z,4192
2019-04-06T09:56:01.692Z,4400
2019-04-06T09:57:01.032Z,4440
2019-04-06T09:58:01.162Z,4928
2019-04-06T09:59:01.326Z,5008
2019-04-06T10:00:01.355Z,5136
2019-04-06T10:01:00.846Z,5336
2019-04-06T10:02:01.505Z,4612
2019-04-06T10:03:01.491Z,4236
2019-04-06T10:04:01.174Z,3732
2019-04-06T10:05:01.471Z,4336
2019-04-06T10:06:01.479Z,4156
2019-04-06T10:07:01.506Z,3652
2019-04-06T10:08:01.075Z,3000
2019-04-06T10:09:01.283Z,2724
2019-04-06T10:10:01.850Z,2580
2019-04-06T10:11:01.898Z,2536
2019-04-06T10:12:03.491Z,2500
2019-04-06T10:13:01.631Z,2468
2019-04-06T10:14:02.069Z,2472
2019-04-06T10:15:01.841Z,2516
2019-04-06T10:16:01.787Z,2492
2019-04-06T10:17:01.991Z,2440
2019-04-06T10:18:01.903Z,2424
2019-04-06T10:19:01.230Z,2400
2019-04-06T10:20:02.155Z,2344
2019-04-06T10:21:01.290Z,2564
2019-04-06T10:22:01.773Z,3024
2019-04-06T10:23:01.702Z,3584
2019-04-06T10:24:02.221Z,3348
2019-04-06T10:25:01.825Z,3668
2019-04-06T10:26:02.039Z,4288
2019-04-06T10:27:01.935Z,3812
2019-04-06T10:28:01.886Z,3336
2019-04-06T10:29:02.056Z,2960
2019-04-06T10:30:01.727Z,2612
2019-04-06T10:31:02.255Z,2636
2019-04-06T10:32:02.216Z,2520
2019-04-06T10:33:02.488Z,3144
2019-04-06T10:34:02.040Z,3404
2019-04-06T10:35:01.836Z,3788
2019-04-06T10:36:02.082Z,3908
2019-04-06T10:37:02.155Z,3784
2019-04-06T10:38:02.414Z,4720
2019-04-06T10:39:02.645Z,3544
2019-04-06T10:40:02.210Z,2888
2019-04-06T10:41:02.539Z,2920
2019-04-06T10:42:02.411Z,2988
2019-04-06T10:43:02.024Z,2884
2019-04-06T10:44:02.857Z,2864
2019-04-06T10:45:01.855Z,2952
2019-04-06T10:46:02.512Z,2872
2019-04-06T10:47:02.453Z,2844
2019-04-06T10:48:02.437Z,2792
2019-04-06T10:49:02.202Z,3104
2019-04-06T10:50:02.424Z,3076
2019-04-06T10:51:01.927Z,2804
2019-04-06T10:52:02.209Z,2672
2019-04-06T10:53:02.239Z,2728
2019-04-06T10:54:02.252Z,2612
2019-04-06T10:55:02.813Z,2540
2019-04-06T10:56:02.825Z,2376
2019-04-06T10:57:02.576Z,2312
2019-04-06T10:58:02.534Z,2344
2019-04-06T10:59:05.666Z,2312
2019-04-06T11:00:09.944Z,2428
2019-04-06T11:01:02.426Z,2744
2019-04-06T11:02:02.528Z,2728
2019-04-06T11:03:02.376Z,2512
2019-04-06T11:04:02.462Z,2592
2019-04-06T11:05:03.176Z,2520
2019-04-06T11:06:02.684Z,2896
2019-04-06T11:07:02.527Z,3236
2019-04-06T11:08:03.062Z,3248
2019-04-06T11:09:03.210Z,2944
2019-04-06T11:10:02.604Z,2996
2019-04-06T11:11:04.904Z,3164
2019-04-06T11:12:03.345Z,3260
2019-04-06T11:13:02.817Z,2932
2019-04-06T11:14:02.853Z,2892
2019-04-06T11:15:03.505Z,3000
2019-04-06T11:16:02.695Z,3048
2019-04-06T11:17:02.740Z,2916
2019-04-06T11:18:03.342Z,3000
2019-04-06T11:19:03.043Z,2956
2019-04-06T11:20:03.188Z,2932
2019-04-06T11:21:03.095Z,3080
2019-04-06T11:22:02.838Z,3232
2019-04-06T11:23:03.155Z,3320
2019-04-06T11:24:03.151Z,3096
2019-04-06T11:25:03.104Z,3032
2019-04-06T11:26:03.205Z,3008
2019-04-06T11:27:03.469Z,3924
2019-04-06T11:28:06.103Z,4248
2019-04-06T11:29:03.162Z,3608
2019-04-06T11:30:17.767Z,3120
2019-04-06T11:31:03.571Z,3108
2019-04-06T11:32:03.975Z,3140
2019-04-06T11:33:03.082Z,2944
2019-04-06T11:34:02.848Z,3052
2019-04-06T11:35:03.768Z,3136
2019-04-06T11:36:03.410Z,3120
2019-04-06T11:37:03.828Z,3044
2019-04-06T11:38:03.314Z,2988
2019-04-06T11:39:03.828Z,3004
2019-04-06T11:40:03.415Z,3028
2019-04-06T11:41:03.314Z,3036
2019-04-06T11:42:03.537Z,3096
2019-04-06T11:43:03.163Z,3072
2019-04-06T11:44:04.226Z,3016
2019-04-06T11:45:03.338Z,3008
2019-04-06T11:46:03.098Z,2992
2019-04-06T11:47:03.906Z,3024
2019-04-06T11:48:03.945Z,3032
2019-04-06T11:49:03.430Z,3052
2019-04-06T11:50:03.761Z,3044
2019-04-06T11:51:03.480Z,3064
2019-04-06T11:52:03.764Z,3104
2019-04-06T11:53:03.512Z,3064
2019-04-06T11:54:03.537Z,3056
2019-04-06T11:55:04.083Z,3072
2019-04-06T11:56:03.982Z,3108
2019-04-06T11:57:03.866Z,3144
2019-04-06T11:58:03.618Z,3164
2019-04-06T11:59:04.101Z,3204
2019-04-06T12:00:03.695Z,3268
2019-04-06T12:01:06.155Z,3340
2019-04-06T12:02:03.823Z,3340
2019-04-06T12:03:04.533Z,3372
2019-04-06T12:04:04.017Z,3404
2019-04-06T12:05:04.339Z,3460
2019-04-06T12:06:04.062Z,3492
2019-04-06T12:07:06.028Z,3616
2019-04-06T12:08:04.474Z,3520
2019-04-06T12:09:04.886Z,3440
2019-04-06T12:10:04.143Z,3448
2019-04-06T12:11:04.357Z,3516
2019-04-06T12:12:04.047Z,3992
2019-04-06T12:13:04.753Z,4024
2019-04-06T12:14:04.368Z,3708
2019-04-06T12:15:04.277Z,3668
2019-04-06T12:16:04.065Z,3644
2019-04-06T12:17:04.438Z,3592
2019-04-06T12:18:04.695Z,3676
2019-04-06T12:19:04.342Z,3616
2019-04-06T12:20:04.417Z,3616
2019-04-06T12:21:04.131Z,3676
2019-04-06T12:22:04.154Z,3648
2019-04-06T12:23:04.805Z,3632
2019-04-06T12:24:04.842Z,3680
2019-04-06T12:25:05.170Z,3724
2019-04-06T12:26:05.049Z,3760
2019-04-06T12:27:04.251Z,3812
2019-04-06T12:28:04.959Z,3784
2019-04-06T12:29:05.292Z,3764
2019-04-06T12:30:04.623Z,3788
2019-04-06T12:31:04.339Z,3804
2019-04-06T12:32:04.612Z,3888
2019-04-06T12:33:05.174Z,3916
2019-04-06T12:34:05.034Z,3904
2019-04-06T12:35:04.426Z,3840
2019-04-06T12:36:04.992Z,4056
2019-04-06T12:37:05.261Z,4292
2019-04-06T12:38:05.187Z,4004
2019-04-06T12:39:04.249Z,3976
2019-04-06T12:40:04.698Z,3960
2019-04-06T12:41:04.831Z,4012
2019-04-06T12:42:04.911Z,4068
2019-04-06T12:43:05.232Z,4084
2019-04-06T12:44:04.626Z,4096
2019-04-06T12:45:05.231Z,4104
2019-04-06T12:46:05.174Z,4120
2019-04-06T12:47:04.429Z,4136
2019-04-06T12:48:05.336Z,4176
2019-04-06T12:49:04.999Z,4188
2019-04-06T12:50:05.297Z,4220
2019-04-06T12:51:05.135Z,4200
2019-04-06T12:52:04.567Z,4236
2019-04-06T12:53:05.357Z,4320
2019-04-06T12:54:04.850Z,4408
2019-04-06T12:55:04.873Z,4780
2019-04-06T12:56:05.156Z,5412
2019-04-06T12:57:05.578Z,5220
2019-04-06T12:58:05.474Z,4860
2019-04-06T12:59:05.362Z,4700
2019-04-06T13:00:05.162Z,4720
2019-04-06T13:01:04.866Z,4724
2019-04-06T13:02:05.057Z,4892
2019-04-06T13:03:05.132Z,4680
2019-04-06T13:04:05.851Z,4616
2019-04-06T13:05:05.378Z,4740
2019-04-06T13:06:05.606Z,5020
2019-04-06T13:07:05.410Z,5232
2019-04-06T13:08:05.489Z,5204
2019-04-06T13:09:05.460Z,5080
2019-04-06T13:10:05.208Z,4900
2019-04-06T13:11:06.023Z,4656
2019-04-06T13:12:05.784Z,3984
2019-04-06T13:13:05.678Z,4452
2019-04-06T13:14:05.330Z,5508
2019-04-06T13:15:05.314Z,6212
2019-04-06T13:16:05.350Z,6316
2019-04-06T13:17:05.806Z,6196
2019-04-06T13:18:05.377Z,5652
2019-04-06T13:19:06.145Z,5612
2019-04-06T13:20:06.219Z,5208
2019-04-06T13:21:05.762Z,5596
2019-04-06T13:22:05.480Z,6368
2019-04-06T13:23:05.902Z,5632
2019-04-06T13:24:05.518Z,4956
2019-04-06T13:25:05.538Z,4864
2019-04-06T13:26:06.416Z,4912
2019-04-06T13:27:05.581Z,5016
2019-04-06T13:28:05.867Z,5148
2019-04-06T13:29:05.768Z,4948
2019-04-06T13:30:05.656Z,4824
2019-04-06T13:31:09.930Z,4656
2019-04-06T13:32:05.432Z,4388
2019-04-06T13:33:06.092Z,4220
2019-04-06T13:34:05.958Z,4904
2019-04-06T13:35:06.023Z,4964
2019-04-06T13:36:06.064Z,4916
2019-04-06T13:37:06.336Z,4944
2019-04-06T13:38:06.371Z,5084
2019-04-06T13:39:06.196Z,5416
2019-04-06T13:40:05.625Z,5884
2019-04-06T13:41:05.908Z,6104
2019-04-06T13:42:06.182Z,6104
2019-04-06T13:43:06.599Z,6064
2019-04-06T13:44:06.318Z,5740
2019-04-06T13:45:06.333Z,6032
2019-04-06T13:46:06.046Z,5540
2019-04-06T13:47:06.066Z,5236
2019-04-06T13:48:06.055Z,5128
2019-04-06T13:49:06.856Z,6124
2019-04-06T13:50:06.836Z,5964
2019-04-06T13:51:06.127Z,5704
2019-04-06T13:52:06.239Z,5336